createdAt,value
2024-05-09T00:00:52.948Z,65.57
2024-05-09T00:03:23.159Z,65.87
2024-05-09T00:05:52.456Z,65.90
2024-05-09T00:08:21.305Z,65.55
2024-05-09T00:10:50.963Z,65.58
2024-05-09T00:13:19.653Z,65.57
2024-05-09T00:15:46.894Z,65.87
2024-05-09T00:18:22.710Z,65.66
2024-05-09T00:20:59.370Z,65.90
2024-05-09T00:23:32.260Z,65.62
2024-05-09T00:26:04.425Z,65.38
2024-05-09T00:28:31.865Z,65.79
2024-05-09T00:30:59.101Z,65.70
2024-05-09T00:33:26.404Z,65.33
2024-05-09T00:35:54.767Z,65.27
2024-05-09T00:38:24.902Z,65.45
2024-05-09T00:40:51.804Z,65.26
2024-05-09T00:43:19.108Z,65.55
2024-05-09T00:45:48.996Z,65.54
2024-05-09T00:48:20.745Z,65.21
2024-05-09T00:50:50.092Z,65.18
2024-05-09T00:53:18.314Z,65.60
2024-05-09T00:55:48.708Z,65.66
2024-05-09T00:58:16.239Z,65.29
2024-05-09T01:00:43.754Z,65.29
2024-05-09T01:03:14.960Z,65.74
2024-05-09T01:05:45.207Z,65.61
2024-05-09T01:08:17.905Z,65.79
2024-05-09T01:10:49.292Z,65.41
2024-05-09T01:13:17.841Z,65.32
2024-05-09T01:15:45.270Z,65.75
2024-05-09T01:18:14.362Z,65.18
2024-05-09T01:20:44.317Z,65.13
2024-05-09T01:23:16.666Z,65.40
2024-05-09T01:25:45.984Z,65.75
2024-05-09T01:28:19.294Z,65.41
2024-05-09T01:30:46.738Z,65.48
2024-05-09T01:33:15.778Z,65.37
2024-05-09T01:35:43.427Z,65.53
2024-05-09T01:38:21.354Z,65.03
2024-05-09T01:40:51.680Z,65.04
2024-05-09T01:43:19.587Z,65.45
2024-05-09T01:48:30.441Z,65.80
2024-05-09T01:50:59.923Z,65.40
2024-05-09T01:53:30.589Z,65.30
2024-05-09T01:55:57.757Z,65.63
2024-05-09T01:58:33.352Z,65.26
2024-05-09T02:01:05.247Z,65.70
2024-05-09T02:03:33.577Z,65.58
2024-05-09T02:06:06.787Z,65.25
2024-05-09T02:08:48.043Z,65.20
2024-05-09T02:11:19.344Z,65.42
2024-05-09T02:13:55.293Z,65.10
2024-05-09T02:16:23.039Z,65.32
2024-05-09T02:18:53.816Z,65.45
2024-05-09T02:21:22.754Z,65.42
2024-05-09T02:23:55.716Z,65.20
2024-05-09T02:26:22.786Z,65.54
2024-05-09T02:28:50.584Z,65.73
2024-05-09T02:31:21.209Z,65.37
2024-05-09T02:33:50.520Z,64.97
2024-05-09T02:36:17.951Z,65.38
2024-05-09T02:38:44.917Z,65.09
2024-05-09T02:41:14.835Z,65.36
2024-05-09T02:43:42.342Z,65.41
2024-05-09T02:46:09.443Z,65.30
2024-05-09T02:48:36.648Z,65.66
2024-05-09T02:51:04.336Z,65.77
2024-05-09T02:53:32.186Z,65.11
2024-05-09T02:56:00.262Z,65.11
2024-05-09T02:58:30.342Z,65.65
2024-05-09T03:01:02.435Z,65.47
2024-05-09T03:03:30.981Z,65.73
2024-05-09T03:05:58.040Z,65.60
2024-05-09T03:08:25.226Z,65.47
2024-05-09T03:10:52.437Z,65.29
2024-05-09T03:13:20.402Z,65.14
2024-05-09T03:15:50.191Z,65.03
2024-05-09T03:18:17.255Z,65.50
2024-05-09T03:20:44.829Z,65.28
2024-05-09T03:23:12.210Z,65.23
2024-05-09T03:25:42.126Z,65.77
2024-05-09T03:28:09.179Z,65.73
2024-05-09T03:30:41.459Z,65.61
2024-05-09T03:33:15.963Z,65.92
2024-05-09T03:35:43.437Z,65.51
2024-05-09T03:38:10.599Z,66.15
2024-05-09T03:40:44.084Z,65.82
2024-05-09T03:43:10.980Z,65.83
2024-05-09T03:45:40.649Z,66.29
2024-05-09T03:48:12.770Z,65.99
2024-05-09T03:50:51.381Z,66.33
2024-05-09T03:53:19.511Z,66.25
2024-05-09T03:55:49.457Z,66.36
2024-05-09T04:01:02.271Z,66.03
2024-05-09T04:03:34.450Z,66.54
2024-05-09T04:06:16.854Z,66.31
2024-05-09T04:08:49.071Z,66.48
2024-05-09T04:11:18.357Z,66.34
2024-05-09T04:13:49.267Z,66.04
2024-05-09T04:16:18.598Z,66.16
2024-05-09T04:18:50.778Z,66.63
2024-05-09T04:21:46.227Z,66.42
2024-05-09T04:24:15.610Z,66.66
2024-05-09T04:26:43.539Z,66.84
2024-05-09T04:29:11.051Z,66.76
2024-05-09T04:31:40.607Z,66.41
2024-05-09T04:34:08.667Z,66.59
2024-05-09T04:39:36.770Z,66.79
2024-05-09T04:42:19.309Z,67.01
2024-05-09T04:44:46.250Z,67.43
2024-05-09T04:47:13.965Z,67.29
2024-05-09T04:49:43.501Z,67.64
2024-05-09T04:52:13.588Z,67.59
2024-05-09T04:54:41.181Z,67.56
2024-05-09T04:57:08.006Z,67.61
2024-05-09T04:59:36.492Z,67.48
2024-05-09T05:02:05.437Z,67.62
2024-05-09T05:04:32.656Z,67.25
2024-05-09T05:07:02.999Z,67.41
2024-05-09T05:09:36.732Z,67.35
2024-05-09T05:12:23.834Z,67.61
2024-05-09T05:14:51.246Z,67.13
2024-05-09T05:17:19.193Z,67.07
2024-05-09T05:19:46.250Z,66.82
2024-05-09T05:22:15.784Z,66.94
2024-05-09T05:24:45.784Z,66.80
2024-05-09T05:27:12.568Z,67.15
2024-05-09T05:29:39.700Z,66.77
2024-05-09T05:32:07.067Z,66.80
2024-05-09T05:34:34.235Z,66.82
2024-05-09T05:37:01.404Z,66.34
2024-05-09T05:39:28.498Z,66.29
2024-05-09T05:42:06.556Z,66.84
2024-05-09T05:44:49.403Z,66.40
2024-05-09T05:47:24.921Z,66.02
2024-05-09T05:49:52.058Z,66.32
2024-05-09T05:52:21.645Z,66.52
2024-05-09T05:54:51.165Z,66.33
2024-05-09T05:57:21.749Z,66.56
2024-05-09T05:59:48.606Z,66.21
2024-05-09T06:02:16.942Z,66.15
2024-05-09T06:04:58.106Z,66.07
2024-05-09T06:07:29.284Z,66.07
2024-05-09T06:10:07.239Z,66.37
2024-05-09T06:12:44.653Z,66.21
2024-05-09T06:15:15.744Z,66.32
2024-05-09T06:17:44.169Z,66.13
2024-05-09T06:20:20.466Z,66.24
2024-05-09T06:22:55.027Z,66.14
2024-05-09T06:25:26.012Z,66.45
2024-05-09T06:27:57.229Z,65.93
2024-05-09T06:30:37.243Z,65.89
2024-05-09T06:33:09.590Z,65.92
2024-05-09T06:35:37.476Z,66.25
2024-05-09T06:38:04.580Z,66.15
2024-05-09T06:40:38.044Z,65.80
2024-05-09T06:43:14.945Z,65.89
2024-05-09T06:45:43.324Z,66.17
2024-05-09T06:48:10.710Z,66.20
2024-05-09T06:50:39.404Z,66.29
2024-05-09T06:53:07.408Z,65.99
2024-05-09T06:55:34.383Z,65.77
2024-05-09T06:58:02.978Z,65.75
2024-05-09T07:00:39.094Z,65.78
2024-05-09T07:03:09.298Z,65.64
2024-05-09T07:05:36.554Z,65.55
2024-05-09T07:08:10.280Z,66.02
2024-05-09T07:10:37.914Z,65.61
2024-05-09T07:13:07.886Z,65.70
2024-05-09T07:15:41.807Z,65.77
2024-05-09T07:18:19.789Z,65.66
2024-05-09T07:20:48.180Z,65.88
2024-05-09T07:23:17.119Z,66.09
2024-05-09T07:25:46.617Z,65.72
2024-05-09T07:28:23.374Z,65.74
2024-05-09T07:31:01.041Z,65.93
2024-05-09T07:33:28.578Z,65.88
2024-05-09T07:36:00.300Z,65.62
2024-05-09T07:38:35.163Z,65.88
2024-05-09T07:41:05.842Z,66.07
2024-05-09T07:43:35.022Z,66.00
2024-05-09T07:47:13.725Z,66.03
2024-05-09T07:50:35.833Z,65.95
2024-05-09T07:53:17.205Z,65.85
2024-05-09T07:54:35.857Z,65.82
2024-05-09T07:57:04.030Z,65.52
2024-05-09T07:59:33.391Z,65.86
2024-05-09T08:02:05.379Z,66.24
2024-05-09T08:04:32.628Z,66.25
2024-05-09T08:07:02.135Z,66.13
2024-05-09T08:09:30.099Z,65.72
2024-05-09T08:11:59.304Z,65.85
2024-05-09T08:14:26.215Z,65.25
2024-05-09T08:16:56.222Z,64.94
2024-05-09T08:19:26.243Z,65.12
2024-05-09T08:21:53.099Z,65.19
2024-05-09T08:24:19.831Z,65.74
2024-05-09T08:26:49.245Z,65.63
2024-05-09T08:29:16.066Z,65.39
2024-05-09T08:31:44.401Z,65.32
2024-05-09T08:34:12.047Z,65.37
2024-05-09T08:36:41.617Z,65.10
2024-05-09T08:39:08.420Z,64.94
2024-05-09T08:41:37.190Z,64.09
2024-05-09T08:44:03.992Z,64.18
2024-05-09T08:46:31.318Z,63.92
2024-05-09T08:48:59.429Z,63.31
2024-05-09T08:51:26.339Z,63.65
2024-05-09T08:53:55.890Z,63.60
2024-05-09T08:56:29.981Z,63.35
2024-05-09T08:59:00.824Z,62.85
2024-05-09T09:04:10.678Z,62.63
2024-05-09T09:06:37.728Z,62.60
2024-05-09T09:09:08.440Z,61.29
2024-05-09T09:11:35.112Z,59.38
2024-05-09T09:14:01.923Z,58.46
2024-05-09T09:16:32.490Z,58.35
2024-05-09T09:18:59.351Z,59.40
2024-05-09T09:21:26.063Z,59.41
2024-05-09T09:23:52.709Z,58.90
2024-05-09T09:26:22.120Z,58.36
2024-05-09T09:28:48.880Z,56.12
2024-05-09T09:31:18.789Z,55.18
2024-05-09T09:33:45.779Z,56.13
2024-05-09T09:36:15.274Z,55.72
2024-05-09T09:38:42.531Z,56.42
2024-05-09T09:41:10.911Z,56.32
2024-05-09T09:43:41.179Z,56.46
2024-05-09T09:46:11.583Z,56.35
2024-05-09T09:48:40.038Z,56.32
2024-05-09T09:51:07.827Z,55.95
2024-05-09T09:53:35.067Z,55.82
2024-05-09T09:56:03.206Z,55.93
2024-05-09T09:58:31.189Z,55.93
2024-05-09T10:01:00.573Z,56.00
2024-05-09T10:03:27.776Z,56.18
2024-05-09T10:05:54.998Z,55.80
2024-05-09T10:08:23.075Z,56.13
2024-05-09T10:10:50.767Z,56.59
2024-05-09T10:13:17.973Z,55.33
2024-05-09T10:15:45.802Z,54.51
2024-05-09T10:18:15.594Z,55.39
2024-05-09T10:20:42.827Z,54.92
2024-05-09T10:23:26.087Z,54.85
2024-05-09T10:25:56.868Z,55.15
2024-05-09T10:28:25.349Z,54.12
2024-05-09T10:30:59.655Z,54.04
2024-05-09T10:33:35.265Z,54.26
2024-05-09T10:36:03.097Z,54.35
2024-05-09T10:38:30.150Z,54.48
2024-05-09T10:40:57.015Z,53.96
2024-05-09T10:43:23.853Z,52.63
2024-05-09T10:45:51.658Z,51.72
2024-05-09T10:48:18.394Z,52.14
2024-05-09T10:50:47.680Z,51.05
2024-05-09T10:53:14.564Z,50.68
2024-05-09T10:55:41.341Z,51.25
2024-05-09T10:58:16.187Z,49.02
2024-05-09T11:00:42.941Z,49.78
2024-05-09T11:03:10.923Z,49.04
2024-05-09T11:05:38.140Z,49.84
2024-05-09T11:08:08.068Z,50.39
2024-05-09T11:10:35.043Z,50.90
2024-05-09T11:13:01.873Z,51.34
2024-05-09T11:15:37.477Z,50.90
2024-05-09T11:18:04.430Z,49.77
2024-05-09T11:20:35.480Z,48.21
2024-05-09T11:23:04.312Z,48.74
2024-05-09T11:25:33.708Z,49.62
2024-05-09T11:28:00.811Z,49.60
2024-05-09T11:30:31.992Z,47.04
2024-05-09T11:32:59.592Z,46.26
2024-05-09T11:35:27.017Z,47.30
2024-05-09T11:37:53.766Z,47.32
2024-05-09T11:40:25.618Z,47.81
2024-05-09T11:43:01.257Z,48.02
2024-05-09T11:45:28.241Z,48.47
2024-05-09T11:47:55.140Z,49.39
2024-05-09T11:50:27.325Z,48.57
2024-05-09T11:52:59.119Z,48.41
2024-05-09T11:55:28.128Z,48.40
2024-05-09T11:57:55.335Z,48.77
2024-05-09T12:00:33.022Z,48.49
2024-05-09T12:03:05.189Z,48.62
2024-05-09T12:05:32.862Z,46.78
2024-05-09T12:08:00.556Z,47.20
2024-05-09T12:10:33.121Z,47.59
2024-05-09T12:13:02.650Z,45.57
2024-05-09T12:15:32.773Z,46.81
2024-05-09T12:18:02.756Z,46.83
2024-05-09T12:20:36.724Z,46.40
2024-05-09T12:23:05.898Z,45.92
2024-05-09T12:25:32.813Z,45.57
2024-05-09T12:27:59.602Z,45.72
2024-05-09T12:30:35.357Z,46.46
2024-05-09T12:33:09.736Z,47.22
2024-05-09T12:35:36.786Z,46.71
2024-05-09T12:38:04.172Z,46.18
2024-05-09T12:40:35.943Z,45.72
2024-05-09T12:43:05.428Z,46.08
2024-05-09T12:45:32.365Z,45.94
2024-05-09T12:47:59.467Z,47.31
2024-05-09T12:50:33.245Z,46.81
2024-05-09T12:53:01.919Z,47.33
2024-05-09T12:55:33.890Z,46.81
2024-05-09T12:58:08.273Z,47.11
2024-05-09T13:00:35.586Z,47.50
2024-05-09T13:03:02.733Z,46.55
2024-05-09T13:05:32.345Z,47.40
2024-05-09T13:08:00.527Z,47.21
2024-05-09T13:10:32.068Z,48.15
2024-05-09T13:13:01.042Z,47.96
2024-05-09T13:15:28.567Z,47.32
2024-05-09T13:17:58.119Z,47.23
2024-05-09T13:20:32.422Z,46.90
2024-05-09T13:23:04.831Z,45.46
2024-05-09T13:25:32.251Z,46.32
2024-05-09T13:27:59.202Z,46.70
2024-05-09T13:30:33.679Z,46.21
2024-05-09T13:33:06.487Z,46.50
2024-05-09T13:35:35.209Z,47.20
2024-05-09T13:38:05.530Z,46.51
2024-05-09T13:40:34.959Z,46.59
2024-05-09T13:43:03.397Z,46.79
2024-05-09T13:45:30.298Z,47.08
2024-05-09T13:47:57.254Z,47.14
2024-05-09T13:50:32.927Z,46.95
2024-05-09T13:53:07.054Z,47.44
2024-05-09T13:55:35.374Z,46.99
2024-05-09T13:58:02.816Z,47.62
2024-05-09T14:00:41.986Z,47.73
2024-05-09T14:03:14.013Z,47.22
2024-05-09T14:05:41.151Z,47.16
2024-05-09T14:08:11.106Z,48.07
2024-05-09T14:10:43.987Z,48.08
2024-05-09T14:13:11.501Z,47.84
2024-05-09T14:15:38.280Z,48.50
2024-05-09T14:18:05.990Z,48.36
2024-05-09T14:20:33.317Z,48.58
2024-05-09T14:23:00.550Z,48.12
2024-05-09T14:25:32.735Z,48.40
2024-05-09T14:28:00.480Z,48.81
2024-05-09T14:30:34.812Z,48.92
2024-05-09T14:33:05.235Z,48.57
2024-05-09T14:35:32.675Z,48.17
2024-05-09T14:37:59.337Z,48.45
2024-05-09T14:40:36.686Z,48.23
2024-05-09T14:43:11.263Z,48.25
2024-05-09T14:45:38.332Z,48.26
2024-05-09T14:48:05.434Z,47.93
2024-05-09T14:50:37.325Z,47.33
2024-05-09T14:53:06.764Z,47.85
2024-05-09T14:55:40.013Z,47.58
2024-05-09T14:58:10.692Z,47.79
2024-05-09T15:00:40.393Z,48.32
2024-05-09T15:03:10.221Z,47.64
2024-05-09T15:05:36.917Z,46.98
2024-05-09T15:08:05.680Z,47.21
2024-05-09T15:10:35.696Z,47.20
2024-05-09T15:13:04.146Z,47.18
2024-05-09T15:15:34.054Z,47.06
2024-05-09T15:18:00.871Z,46.66
2024-05-09T15:20:34.334Z,46.93
2024-05-09T15:23:03.544Z,47.04
2024-05-09T15:25:30.844Z,46.98
2024-05-09T15:27:57.784Z,47.13
2024-05-09T15:30:30.582Z,46.57
2024-05-09T15:33:06.225Z,47.05
2024-05-09T15:35:34.100Z,46.27
2024-05-09T15:38:02.811Z,46.39
2024-05-09T15:40:37.234Z,46.36
2024-05-09T15:43:07.435Z,47.05
2024-05-09T15:45:34.781Z,46.43
2024-05-09T15:48:05.473Z,46.80
2024-05-09T15:50:38.214Z,47.47
2024-05-09T15:53:08.310Z,47.47
2024-05-09T15:55:35.933Z,46.98
2024-05-09T15:58:04.164Z,47.60
2024-05-09T16:00:38.709Z,47.61
2024-05-09T16:03:12.512Z,47.67
2024-05-09T16:05:41.034Z,47.68
2024-05-09T16:08:08.500Z,47.38
2024-05-09T16:10:36.068Z,47.60
2024-05-09T16:13:03.700Z,47.38
2024-05-09T16:15:30.970Z,47.71
2024-05-09T16:17:58.104Z,47.86
2024-05-09T16:20:35.209Z,47.46
2024-05-09T16:23:06.896Z,47.64
2024-05-09T16:25:33.640Z,47.80
2024-05-09T16:28:00.694Z,47.14
2024-05-09T16:30:34.011Z,47.57
2024-05-09T16:33:03.015Z,47.75
2024-05-09T16:35:32.653Z,47.94
2024-05-09T16:38:01.116Z,47.92
2024-05-09T16:40:36.151Z,47.47
2024-05-09T16:43:06.649Z,47.64
2024-05-09T16:45:33.836Z,47.03
2024-05-09T16:48:01.543Z,47.00
2024-05-09T16:50:32.745Z,45.82
2024-05-09T16:53:04.993Z,45.47
2024-05-09T16:55:32.426Z,46.31
2024-05-09T16:57:59.331Z,46.02
2024-05-09T17:00:36.079Z,46.51
2024-05-09T17:03:08.816Z,46.11
2024-05-09T17:05:36.363Z,46.65
2024-05-09T17:08:07.266Z,46.54
2024-05-09T17:10:35.964Z,46.91
2024-05-09T17:13:04.645Z,47.37
2024-05-09T17:15:33.281Z,47.02
2024-05-09T17:18:00.691Z,47.41
2024-05-09T17:20:33.096Z,47.70
2024-05-09T17:23:02.919Z,47.96
2024-05-09T17:25:32.289Z,48.06
2024-05-09T17:28:06.904Z,47.67
2024-05-09T17:30:36.660Z,47.86
2024-05-09T17:33:05.938Z,48.45
2024-05-09T17:35:32.741Z,48.38
2024-05-09T17:37:59.854Z,47.93
2024-05-09T17:40:32.793Z,48.25
2024-05-09T17:43:06.272Z,48.74
2024-05-09T17:45:34.232Z,48.35
2024-05-09T17:48:01.644Z,48.89
2024-05-09T17:50:35.111Z,48.83
2024-05-09T17:53:04.212Z,48.51
2024-05-09T17:55:31.002Z,48.50
2024-05-09T17:57:57.899Z,48.94
2024-05-09T18:00:36.752Z,49.21
2024-05-09T18:03:07.281Z,49.46
2024-05-09T18:05:34.682Z,49.00
2024-05-09T18:08:01.522Z,49.63
2024-05-09T18:10:35.212Z,49.74
2024-05-09T18:13:05.808Z,49.55
2024-05-09T18:15:36.055Z,49.45
2024-05-09T18:18:03.657Z,49.53
2024-05-09T18:20:40.338Z,49.29
2024-05-09T18:23:11.228Z,49.59
2024-05-09T18:25:37.911Z,49.07
2024-05-09T18:28:05.427Z,49.47
2024-05-09T18:30:35.412Z,49.83
2024-05-09T18:33:08.001Z,50.09
2024-05-09T18:35:35.601Z,49.80
2024-05-09T18:38:02.634Z,50.16
2024-05-09T18:40:34.420Z,49.92
2024-05-09T18:43:04.663Z,50.24
2024-05-09T18:45:32.448Z,50.25
2024-05-09T18:48:00.023Z,50.64
2024-05-09T18:50:35.604Z,50.62
2024-05-09T18:53:05.931Z,50.76
2024-05-09T18:55:32.747Z,50.83
2024-05-09T18:57:59.547Z,50.73
2024-05-09T19:00:33.625Z,50.80
2024-05-09T19:03:05.654Z,51.29
2024-05-09T19:05:36.304Z,50.98
2024-05-09T19:08:03.396Z,51.07
2024-05-09T19:10:34.328Z,51.21
2024-05-09T19:13:05.738Z,51.48
2024-05-09T19:15:36.142Z,51.83
2024-05-09T19:18:03.585Z,51.65
2024-05-09T19:20:34.500Z,51.98
2024-05-09T19:23:06.154Z,51.93
2024-05-09T19:25:33.315Z,51.84
2024-05-09T19:28:00.081Z,52.29
2024-05-09T19:30:36.418Z,52.31
2024-05-09T19:33:07.563Z,52.10
2024-05-09T19:35:34.338Z,52.51
2024-05-09T19:38:01.182Z,52.56
2024-05-09T19:40:32.786Z,52.65
2024-05-09T19:43:02.348Z,52.52
2024-05-09T19:45:29.760Z,52.65
2024-05-09T19:47:56.593Z,52.60
2024-05-09T19:50:32.142Z,52.51
2024-05-09T19:53:06.691Z,52.85
2024-05-09T19:55:35.952Z,52.82
2024-05-09T19:58:04.905Z,53.08
2024-05-09T20:00:36.223Z,53.34
2024-05-09T20:03:05.269Z,53.45
2024-05-09T20:05:32.330Z,53.73
2024-05-09T20:07:59.329Z,53.60
2024-05-09T20:10:31.467Z,53.60
2024-05-09T20:13:03.233Z,54.16
2024-05-09T20:15:30.640Z,54.07
2024-05-09T20:17:57.463Z,54.21
2024-05-09T20:20:33.031Z,54.31
2024-05-09T20:23:05.144Z,54.27
2024-05-09T20:25:31.760Z,54.30
2024-05-09T20:27:58.824Z,54.35
2024-05-09T20:30:32.291Z,54.40
2024-05-09T20:33:02.296Z,54.27
2024-05-09T20:35:31.635Z,54.55
2024-05-09T20:38:27.113Z,54.27
2024-05-09T20:40:53.882Z,54.17
2024-05-09T20:43:21.043Z,54.19
2024-05-09T20:45:50.581Z,54.40
2024-05-09T20:48:18.061Z,54.19
2024-05-09T20:50:44.980Z,54.65
2024-05-09T20:53:13.535Z,54.41
2024-05-09T20:55:43.031Z,54.40
2024-05-09T20:58:11.258Z,54.61
2024-05-09T21:00:42.783Z,54.53
2024-05-09T21:03:16.794Z,54.62
2024-05-09T21:05:46.627Z,54.59
2024-05-09T21:08:19.708Z,54.59
2024-05-09T21:10:46.840Z,54.47
2024-05-09T21:13:13.742Z,54.88
2024-05-09T21:15:41.133Z,54.78
2024-05-09T21:18:10.196Z,54.75
2024-05-09T21:20:39.908Z,54.94
2024-05-09T21:23:06.903Z,54.84
2024-05-09T21:25:41.613Z,54.93
2024-05-09T21:28:09.217Z,54.96
2024-05-09T21:30:41.772Z,54.73
2024-05-09T21:33:11.655Z,54.79
2024-05-09T21:35:45.380Z,55.17
2024-05-09T21:38:14.110Z,55.26
2024-05-09T21:40:41.372Z,55.50
2024-05-09T21:43:09.373Z,55.57
2024-05-09T21:45:37.926Z,55.33
2024-05-09T21:48:07.112Z,55.58
2024-05-09T21:50:40.871Z,55.71
2024-05-09T21:53:13.452Z,55.72
2024-05-09T21:55:40.757Z,55.76
2024-05-09T21:58:08.066Z,55.37
2024-05-09T22:00:38.189Z,55.49
2024-05-09T22:03:06.435Z,55.80
2024-05-09T22:05:33.945Z,55.69
2024-05-09T22:08:00.906Z,56.05
2024-05-09T22:10:34.291Z,55.97
2024-05-09T22:13:03.014Z,56.35
2024-05-09T22:15:30.166Z,56.50
2024-05-09T22:17:57.538Z,56.39
2024-05-09T22:20:33.543Z,57.00
2024-05-09T22:23:04.646Z,56.75
2024-05-09T22:25:34.264Z,56.57
2024-05-09T22:28:01.791Z,56.80
2024-05-09T22:30:35.817Z,56.62
2024-05-09T22:33:06.449Z,56.61
2024-05-09T22:35:33.451Z,56.55
2024-05-09T22:38:00.128Z,56.80
2024-05-09T22:40:38.287Z,57.53
2024-05-09T22:43:16.349Z,57.65
2024-05-09T22:45:43.113Z,58.04
2024-05-09T22:48:10.174Z,57.75
2024-05-09T22:50:36.918Z,58.01
2024-05-09T22:53:03.622Z,58.13
2024-05-09T22:55:30.331Z,58.66
2024-05-09T22:57:57.205Z,58.57
2024-05-09T23:00:31.481Z,58.62
2024-05-09T23:03:00.034Z,58.56
2024-05-09T23:05:27.175Z,58.75
2024-05-09T23:07:53.913Z,58.52
2024-05-09T23:10:27.783Z,58.26
2024-05-09T23:12:59.340Z,58.53
2024-05-09T23:15:28.624Z,58.80
2024-05-09T23:17:55.557Z,58.60
2024-05-09T23:20:33.168Z,58.88
2024-05-09T23:23:05.839Z,59.18
2024-05-09T23:25:32.646Z,59.12
2024-05-09T23:28:00.883Z,59.25
2024-05-09T23:30:44.286Z,58.99
2024-05-09T23:33:13.247Z,59.39
2024-05-09T23:35:41.892Z,59.50
2024-05-09T23:38:09.394Z,59.32
2024-05-09T23:40:40.528Z,59.42
2024-05-09T23:43:10.385Z,59.99
2024-05-09T23:45:43.639Z,60.00
2024-05-09T23:48:13.720Z,59.87
2024-05-09T23:50:45.987Z,59.82
2024-05-09T23:53:14.511Z,59.80
2024-05-09T23:55:42.224Z,59.42
2024-05-09T23:58:11.388Z,59.59
